sensor_id;sensor_type;location;lat;lon;timestamp;P1;durP1;ratioP1;P2;durP2;ratioP2
8337;SDS011;4206;48.634;9.516;2022-07-26T00:01:20;4.10;;;1.60;;
8337;SDS011;4206;48.634;9.516;2022-07-26T00:03:47;3.07;;;1.80;;
8337;SDS011;4206;48.634;9.516;2022-07-26T00:06:14;5.90;;;1.83;;
8337;SDS011;4206;48.634;9.516;2022-07-26T00:08:40;4.50;;;2.13;;
8337;SDS011;4206;48.634;9.516;2022-07-26T00:11:06;6.67;;;2.10;;
8337;SDS011;4206;48.634;9.516;2022-07-26T00:13:32;5.10;;;2.13;;
8337;SDS011;4206;48.634;9.516;2022-07-26T00:15:59;2.67;;;1.97;;
8337;SDS011;4206;48.634;9.516;2022-07-26T00:18:25;2.90;;;1.87;;
8337;SDS011;4206;48.634;9.516;2022-07-26T00:20:51;5.10;;;2.40;;
8337;SDS011;4206;48.634;9.516;2022-07-26T00:23:17;3.80;;;1.97;;
8337;SDS011;4206;48.634;9.516;2022-07-26T00:25:44;3.17;;;1.53;;
8337;SDS011;4206;48.634;9.516;2022-07-26T00:28:10;3.97;;;1.93;;
8337;SDS011;4206;48.634;9.516;2022-07-26T00:30:36;2.70;;;1.90;;
8337;SDS011;4206;48.634;9.516;2022-07-26T00:33:03;3.60;;;1.73;;
8337;SDS011;4206;48.634;9.516;2022-07-26T00:35:29;5.33;;;2.17;;
8337;SDS011;4206;48.634;9.516;2022-07-26T00:37:55;3.67;;;2.03;;
8337;SDS011;4206;48.634;9.516;2022-07-26T00:40:21;4.90;;;2.07;;
8337;SDS011;4206;48.634;9.516;2022-07-26T00:42:47;3.40;;;1.70;;
8337;SDS011;4206;48.634;9.516;2022-07-26T00:45:13;4.70;;;1.70;;
8337;SDS011;4206;48.634;9.516;2022-07-26T00:47:40;4.10;;;1.70;;
8337;SDS011;4206;48.634;9.516;2022-07-26T00:50:07;3.33;;;1.60;;
8337;SDS011;4206;48.634;9.516;2022-07-26T00:52:33;2.60;;;1.50;;
8337;SDS011;4206;48.634;9.516;2022-07-26T00:54:59;4.70;;;1.80;;
8337;SDS011;4206;48.634;9.516;2022-07-26T00:57:26;2.30;;;1.53;;
8337;SDS011;4206;48.634;9.516;2022-07-26T00:59:52;5.37;;;1.80;;
8337;SDS011;4206;48.634;9.516;2022-07-26T01:02:18;4.73;;;1.97;;
8337;SDS011;4206;48.634;9.516;2022-07-26T01:04:44;4.23;;;1.83;;
8337;SDS011;4206;48.634;9.516;2022-07-26T01:07:10;7.77;;;1.63;;
8337;SDS011;4206;48.634;9.516;2022-07-26T01:09:37;2.97;;;1.70;;
8337;SDS011;4206;48.634;9.516;2022-07-26T01:12:03;2.53;;;1.70;;
8337;SDS011;4206;48.634;9.516;2022-07-26T01:14:29;5.13;;;1.87;;
8337;SDS011;4206;48.634;9.516;2022-07-26T01:16:55;3.47;;;1.30;;
8337;SDS011;4206;48.634;9.516;2022-07-26T01:19:22;2.93;;;1.40;;
8337;SDS011;4206;48.634;9.516;2022-07-26T01:21:49;5.20;;;1.80;;
8337;SDS011;4206;48.634;9.516;2022-07-26T01:24:16;6.00;;;1.40;;
8337;SDS011;4206;48.634;9.516;2022-07-26T01:26:42;5.03;;;1.60;;
8337;SDS011;4206;48.634;9.516;2022-07-26T01:29:08;7.77;;;1.83;;
8337;SDS011;4206;48.634;9.516;2022-07-26T01:31:35;4.77;;;1.43;;
8337;SDS011;4206;48.634;9.516;2022-07-26T01:34:01;4.33;;;1.77;;
8337;SDS011;4206;48.634;9.516;2022-07-26T01:36:27;3.87;;;1.40;;
8337;SDS011;4206;48.634;9.516;2022-07-26T01:38:53;5.50;;;1.73;;
8337;SDS011;4206;48.634;9.516;2022-07-26T01:41:19;4.97;;;1.40;;
8337;SDS011;4206;48.634;9.516;2022-07-26T01:43:45;8.03;;;1.40;;
8337;SDS011;4206;48.634;9.516;2022-07-26T01:46:11;2.90;;;1.53;;
8337;SDS011;4206;48.634;9.516;2022-07-26T01:48:37;9.60;;;2.10;;
8337;SDS011;4206;48.634;9.516;2022-07-26T01:51:04;4.23;;;1.23;;
8337;SDS011;4206;48.634;9.516;2022-07-26T01:53:30;2.57;;;1.53;;
8337;SDS011;4206;48.634;9.516;2022-07-26T01:55:56;2.57;;;1.23;;
8337;SDS011;4206;48.634;9.516;2022-07-26T01:58:22;3.03;;;1.50;;
8337;SDS011;4206;48.634;9.516;2022-07-26T02:00:48;3.37;;;1.50;;
8337;SDS011;4206;48.634;9.516;2022-07-26T02:03:14;4.07;;;1.60;;
8337;SDS011;4206;48.634;9.516;2022-07-26T02:05:41;3.10;;;1.93;;
8337;SDS011;4206;48.634;9.516;2022-07-26T02:08:07;2.60;;;1.23;;
8337;SDS011;4206;48.634;9.516;2022-07-26T02:10:33;3.23;;;1.30;;
8337;SDS011;4206;48.634;9.516;2022-07-26T02:13:14;3.67;;;1.57;;
8337;SDS011;4206;48.634;9.516;2022-07-26T02:15:40;2.90;;;1.20;;
8337;SDS011;4206;48.634;9.516;2022-07-26T02:18:06;1.67;;;1.20;;
8337;SDS011;4206;48.634;9.516;2022-07-26T02:20:32;1.37;;;1.07;;
8337;SDS011;4206;48.634;9.516;2022-07-26T02:22:59;4.20;;;1.50;;
8337;SDS011;4206;48.634;9.516;2022-07-26T02:25:26;4.37;;;1.10;;
8337;SDS011;4206;48.634;9.516;2022-07-26T02:27:52;1.53;;;1.10;;
8337;SDS011;4206;48.634;9.516;2022-07-26T02:30:18;4.63;;;0.93;;
8337;SDS011;4206;48.634;9.516;2022-07-26T02:32:44;2.87;;;1.33;;
8337;SDS011;4206;48.634;9.516;2022-07-26T02:35:11;1.70;;;1.10;;
8337;SDS011;4206;48.634;9.516;2022-07-26T02:37:37;1.70;;;1.00;;
8337;SDS011;4206;48.634;9.516;2022-07-26T02:40:05;3.00;;;1.00;;
8337;SDS011;4206;48.634;9.516;2022-07-26T02:42:31;1.70;;;1.30;;
8337;SDS011;4206;48.634;9.516;2022-07-26T02:44:57;1.80;;;1.10;;
8337;SDS011;4206;48.634;9.516;2022-07-26T02:47:23;3.20;;;1.13;;
8337;SDS011;4206;48.634;9.516;2022-07-26T02:49:49;2.20;;;1.10;;
8337;SDS011;4206;48.634;9.516;2022-07-26T02:52:15;4.33;;;1.50;;
8337;SDS011;4206;48.634;9.516;2022-07-26T02:54:41;2.50;;;1.30;;
8337;SDS011;4206;48.634;9.516;2022-07-26T02:57:07;1.70;;;1.30;;
8337;SDS011;4206;48.634;9.516;2022-07-26T02:59:34;1.87;;;1.20;;
8337;SDS011;4206;48.634;9.516;2022-07-26T03:02:00;1.77;;;0.97;;
8337;SDS011;4206;48.634;9.516;2022-07-26T03:04:26;1.33;;;1.23;;
8337;SDS011;4206;48.634;9.516;2022-07-26T03:06:52;1.57;;;1.07;;
8337;SDS011;4206;48.634;9.516;2022-07-26T03:09:18;3.20;;;1.93;;
8337;SDS011;4206;48.634;9.516;2022-07-26T03:11:44;2.80;;;1.40;;
8337;SDS011;4206;48.634;9.516;2022-07-26T03:14:10;4.40;;;1.67;;
8337;SDS011;4206;48.634;9.516;2022-07-26T03:16:36;2.17;;;1.43;;
8337;SDS011;4206;48.634;9.516;2022-07-26T03:19:02;1.47;;;1.30;;
8337;SDS011;4206;48.634;9.516;2022-07-26T03:21:28;3.73;;;1.53;;
8337;SDS011;4206;48.634;9.516;2022-07-26T03:23:54;3.50;;;1.37;;
8337;SDS011;4206;48.634;9.516;2022-07-26T03:26:20;2.20;;;0.90;;
8337;SDS011;4206;48.634;9.516;2022-07-26T03:28:46;2.10;;;1.40;;
8337;SDS011;4206;48.634;9.516;2022-07-26T03:31:12;3.10;;;1.17;;
8337;SDS011;4206;48.634;9.516;2022-07-26T03:33:39;1.50;;;1.07;;
8337;SDS011;4206;48.634;9.516;2022-07-26T03:36:05;2.00;;;1.13;;
8337;SDS011;4206;48.634;9.516;2022-07-26T03:38:31;1.13;;;0.97;;
8337;SDS011;4206;48.634;9.516;2022-07-26T03:40:57;3.27;;;1.20;;
8337;SDS011;4206;48.634;9.516;2022-07-26T03:43:23;1.10;;;0.90;;
8337;SDS011;4206;48.634;9.516;2022-07-26T03:45:49;2.83;;;1.60;;
8337;SDS011;4206;48.634;9.516;2022-07-26T03:48:16;2.00;;;1.10;;
8337;SDS011;4206;48.634;9.516;2022-07-26T03:50:42;3.37;;;1.37;;
8337;SDS011;4206;48.634;9.516;2022-07-26T03:53:08;3.27;;;1.70;;
8337;SDS011;4206;48.634;9.516;2022-07-26T03:55:34;5.00;;;1.87;;
8337;SDS011;4206;48.634;9.516;2022-07-26T03:58:15;3.60;;;1.80;;
8337;SDS011;4206;48.634;9.516;2022-07-26T04:00:43;2.83;;;1.63;;
8337;SDS011;4206;48.634;9.516;2022-07-26T04:03:09;1.87;;;1.50;;
8337;SDS011;4206;48.634;9.516;2022-07-26T04:05:35;1.73;;;1.43;;
8337;SDS011;4206;48.634;9.516;2022-07-26T04:08:01;3.37;;;1.70;;
8337;SDS011;4206;48.634;9.516;2022-07-26T04:10:27;5.10;;;1.60;;
8337;SDS011;4206;48.634;9.516;2022-07-26T04:12:53;1.47;;;1.37;;
8337;SDS011;4206;48.634;9.516;2022-07-26T04:15:19;7.00;;;2.40;;
8337;SDS011;4206;48.634;9.516;2022-07-26T04:17:45;5.50;;;1.60;;
8337;SDS011;4206;48.634;9.516;2022-07-26T04:20:13;2.10;;;1.73;;
8337;SDS011;4206;48.634;9.516;2022-07-26T04:22:39;2.63;;;1.70;;
8337;SDS011;4206;48.634;9.516;2022-07-26T04:25:06;2.23;;;1.80;;
8337;SDS011;4206;48.634;9.516;2022-07-26T04:27:32;6.23;;;1.77;;
8337;SDS011;4206;48.634;9.516;2022-07-26T04:29:59;3.50;;;2.00;;
8337;SDS011;4206;48.634;9.516;2022-07-26T04:32:25;4.80;;;1.47;;
8337;SDS011;4206;48.634;9.516;2022-07-26T04:34:51;4.70;;;1.30;;
8337;SDS011;4206;48.634;9.516;2022-07-26T04:37:17;3.07;;;1.63;;
8337;SDS011;4206;48.634;9.516;2022-07-26T04:39:43;2.80;;;1.60;;
8337;SDS011;4206;48.634;9.516;2022-07-26T04:42:09;2.00;;;1.50;;
8337;SDS011;4206;48.634;9.516;2022-07-26T04:44:36;10.23;;;1.50;;
8337;SDS011;4206;48.634;9.516;2022-07-26T04:47:02;2.27;;;1.30;;
8337;SDS011;4206;48.634;9.516;2022-07-26T04:49:28;2.23;;;1.40;;
8337;SDS011;4206;48.634;9.516;2022-07-26T04:51:54;1.37;;;1.20;;
8337;SDS011;4206;48.634;9.516;2022-07-26T04:54:20;2.00;;;1.27;;
8337;SDS011;4206;48.634;9.516;2022-07-26T04:56:47;6.60;;;1.57;;
8337;SDS011;4206;48.634;9.516;2022-07-26T04:59:14;3.33;;;1.07;;
8337;SDS011;4206;48.634;9.516;2022-07-26T05:01:41;5.87;;;1.43;;
8337;SDS011;4206;48.634;9.516;2022-07-26T05:04:07;5.97;;;1.70;;
8337;SDS011;4206;48.634;9.516;2022-07-26T05:06:33;3.27;;;1.40;;
8337;SDS011;4206;48.634;9.516;2022-07-26T05:08:58;3.20;;;1.27;;
8337;SDS011;4206;48.634;9.516;2022-07-26T05:11:24;3.37;;;1.20;;
8337;SDS011;4206;48.634;9.516;2022-07-26T05:13:51;3.60;;;1.60;;
8337;SDS011;4206;48.634;9.516;2022-07-26T05:16:17;4.67;;;1.40;;
8337;SDS011;4206;48.634;9.516;2022-07-26T05:18:43;2.20;;;1.23;;
8337;SDS011;4206;48.634;9.516;2022-07-26T05:21:09;2.10;;;1.53;;
8337;SDS011;4206;48.634;9.516;2022-07-26T05:23:34;3.43;;;1.33;;
8337;SDS011;4206;48.634;9.516;2022-07-26T05:26:00;2.73;;;0.87;;
8337;SDS011;4206;48.634;9.516;2022-07-26T05:28:26;5.90;;;1.67;;
8337;SDS011;4206;48.634;9.516;2022-07-26T05:30:51;1.73;;;1.20;;
8337;SDS011;4206;48.634;9.516;2022-07-26T05:33:17;3.10;;;1.33;;
8337;SDS011;4206;48.634;9.516;2022-07-26T05:35:43;2.27;;;1.20;;
8337;SDS011;4206;48.634;9.516;2022-07-26T05:38:08;1.53;;;1.30;;
8337;SDS011;4206;48.634;9.516;2022-07-26T05:40:34;1.73;;;1.10;;
8337;SDS011;4206;48.634;9.516;2022-07-26T05:43:00;4.10;;;1.30;;
8337;SDS011;4206;48.634;9.516;2022-07-26T05:45:27;2.33;;;1.60;;
8337;SDS011;4206;48.634;9.516;2022-07-26T05:47:52;5.67;;;1.67;;
8337;SDS011;4206;48.634;9.516;2022-07-26T05:50:19;6.90;;;1.33;;
8337;SDS011;4206;48.634;9.516;2022-07-26T05:52:45;1.97;;;1.33;;
8337;SDS011;4206;48.634;9.516;2022-07-26T05:55:11;2.30;;;1.10;;
8337;SDS011;4206;48.634;9.516;2022-07-26T05:57:37;2.40;;;1.47;;
8337;SDS011;4206;48.634;9.516;2022-07-26T06:00:06;5.53;;;1.63;;
8337;SDS011;4206;48.634;9.516;2022-07-26T06:02:33;1.63;;;1.03;;
8337;SDS011;4206;48.634;9.516;2022-07-26T06:04:58;2.97;;;1.00;;
8337;SDS011;4206;48.634;9.516;2022-07-26T06:07:24;4.83;;;1.23;;
8337;SDS011;4206;48.634;9.516;2022-07-26T06:09:50;1.60;;;1.20;;
8337;SDS011;4206;48.634;9.516;2022-07-26T06:12:15;5.17;;;1.20;;
8337;SDS011;4206;48.634;9.516;2022-07-26T06:14:41;1.50;;;1.00;;
8337;SDS011;4206;48.634;9.516;2022-07-26T06:17:07;4.77;;;1.40;;
8337;SDS011;4206;48.634;9.516;2022-07-26T06:19:32;2.00;;;1.67;;
8337;SDS011;4206;48.634;9.516;2022-07-26T06:21:58;1.93;;;1.33;;
8337;SDS011;4206;48.634;9.516;2022-07-26T06:24:24;1.57;;;1.00;;
8337;SDS011;4206;48.634;9.516;2022-07-26T06:26:50;2.93;;;1.30;;
8337;SDS011;4206;48.634;9.516;2022-07-26T06:29:17;4.67;;;1.37;;
8337;SDS011;4206;48.634;9.516;2022-07-26T06:31:43;1.43;;;1.07;;
8337;SDS011;4206;48.634;9.516;2022-07-26T06:34:09;1.30;;;1.20;;
8337;SDS011;4206;48.634;9.516;2022-07-26T06:36:34;3.80;;;1.40;;
8337;SDS011;4206;48.634;9.516;2022-07-26T06:39:00;4.10;;;1.50;;
8337;SDS011;4206;48.634;9.516;2022-07-26T06:41:26;3.00;;;1.40;;
8337;SDS011;4206;48.634;9.516;2022-07-26T06:43:51;1.37;;;1.27;;
8337;SDS011;4206;48.634;9.516;2022-07-26T06:46:17;2.80;;;1.50;;
8337;SDS011;4206;48.634;9.516;2022-07-26T06:48:44;2.10;;;1.37;;
8337;SDS011;4206;48.634;9.516;2022-07-26T06:51:10;7.30;;;1.60;;
8337;SDS011;4206;48.634;9.516;2022-07-26T06:53:36;2.97;;;1.20;;
8337;SDS011;4206;48.634;9.516;2022-07-26T06:56:02;3.67;;;1.20;;
8337;SDS011;4206;48.634;9.516;2022-07-26T06:58:29;5.70;;;1.30;;
8337;SDS011;4206;48.634;9.516;2022-07-26T07:00:55;2.53;;;1.30;;
8337;SDS011;4206;48.634;9.516;2022-07-26T07:03:21;1.40;;;1.23;;
8337;SDS011;4206;48.634;9.516;2022-07-26T07:05:47;6.63;;;1.70;;
8337;SDS011;4206;48.634;9.516;2022-07-26T07:08:13;4.47;;;1.43;;
8337;SDS011;4206;48.634;9.516;2022-07-26T07:10:42;3.70;;;1.43;;
8337;SDS011;4206;48.634;9.516;2022-07-26T07:13:07;1.70;;;1.53;;
8337;SDS011;4206;48.634;9.516;2022-07-26T07:15:33;2.23;;;1.30;;
8337;SDS011;4206;48.634;9.516;2022-07-26T07:17:59;4.37;;;1.70;;
8337;SDS011;4206;48.634;9.516;2022-07-26T07:20:25;6.07;;;1.60;;
8337;SDS011;4206;48.634;9.516;2022-07-26T07:22:52;6.73;;;1.73;;
8337;SDS011;4206;48.634;9.516;2022-07-26T07:25:18;5.10;;;1.60;;
8337;SDS011;4206;48.634;9.516;2022-07-26T07:27:44;4.10;;;1.47;;
8337;SDS011;4206;48.634;9.516;2022-07-26T07:30:09;4.70;;;1.87;;
8337;SDS011;4206;48.634;9.516;2022-07-26T07:32:36;4.90;;;1.50;;
8337;SDS011;4206;48.634;9.516;2022-07-26T07:35:02;2.20;;;1.80;;
8337;SDS011;4206;48.634;9.516;2022-07-26T07:37:29;2.50;;;1.30;;
8337;SDS011;4206;48.634;9.516;2022-07-26T07:39:54;5.50;;;2.00;;
8337;SDS011;4206;48.634;9.516;2022-07-26T07:42:20;5.33;;;1.97;;
8337;SDS011;4206;48.634;9.516;2022-07-26T07:44:46;3.23;;;1.20;;
8337;SDS011;4206;48.634;9.516;2022-07-26T07:47:11;2.60;;;1.37;;
8337;SDS011;4206;48.634;9.516;2022-07-26T07:49:38;1.70;;;1.37;;
8337;SDS011;4206;48.634;9.516;2022-07-26T07:52:03;4.33;;;1.73;;
8337;SDS011;4206;48.634;9.516;2022-07-26T07:54:29;6.50;;;1.70;;
8337;SDS011;4206;48.634;9.516;2022-07-26T07:56:55;2.50;;;1.77;;
8337;SDS011;4206;48.634;9.516;2022-07-26T07:59:21;3.00;;;1.27;;
8337;SDS011;4206;48.634;9.516;2022-07-26T08:01:47;3.90;;;1.30;;
8337;SDS011;4206;48.634;9.516;2022-07-26T08:04:13;3.10;;;1.50;;
8337;SDS011;4206;48.634;9.516;2022-07-26T08:06:39;3.37;;;1.53;;
8337;SDS011;4206;48.634;9.516;2022-07-26T08:09:05;5.37;;;1.57;;
8337;SDS011;4206;48.634;9.516;2022-07-26T08:11:31;8.23;;;2.17;;
8337;SDS011;4206;48.634;9.516;2022-07-26T08:13:56;5.10;;;1.50;;
8337;SDS011;4206;48.634;9.516;2022-07-26T08:16:22;2.97;;;1.70;;
8337;SDS011;4206;48.634;9.516;2022-07-26T08:18:48;4.67;;;1.60;;
8337;SDS011;4206;48.634;9.516;2022-07-26T08:21:13;3.10;;;1.40;;
8337;SDS011;4206;48.634;9.516;2022-07-26T08:23:39;3.37;;;1.40;;
8337;SDS011;4206;48.634;9.516;2022-07-26T08:26:05;4.03;;;1.47;;
8337;SDS011;4206;48.634;9.516;2022-07-26T08:28:30;3.37;;;1.20;;
8337;SDS011;4206;48.634;9.516;2022-07-26T08:30:57;2.90;;;1.27;;
8337;SDS011;4206;48.634;9.516;2022-07-26T08:33:22;5.50;;;1.53;;
8337;SDS011;4206;48.634;9.516;2022-07-26T08:35:48;4.27;;;1.30;;
8337;SDS011;4206;48.634;9.516;2022-07-26T08:38:14;10.57;;;1.87;;
8337;SDS011;4206;48.634;9.516;2022-07-26T08:40:39;3.43;;;1.70;;
8337;SDS011;4206;48.634;9.516;2022-07-26T08:43:05;4.93;;;1.20;;
8337;SDS011;4206;48.634;9.516;2022-07-26T08:45:32;2.90;;;1.30;;
8337;SDS011;4206;48.634;9.516;2022-07-26T08:47:58;3.50;;;1.33;;
8337;SDS011;4206;48.634;9.516;2022-07-26T08:50:26;3.60;;;1.67;;
8337;SDS011;4206;48.634;9.516;2022-07-26T08:52:54;3.03;;;1.23;;
8337;SDS011;4206;48.634;9.516;2022-07-26T08:55:23;3.63;;;1.20;;
8337;SDS011;4206;48.634;9.516;2022-07-26T08:57:49;2.10;;;1.07;;
8337;SDS011;4206;48.634;9.516;2022-07-26T09:02:46;5.47;;;1.47;;
8337;SDS011;4206;48.634;9.516;2022-07-26T09:05:12;2.42;;;1.33;;
8337;SDS011;4206;48.634;9.516;2022-07-26T09:07:39;4.70;;;1.00;;
8337;SDS011;4206;48.634;9.516;2022-07-26T09:10:06;3.80;;;1.48;;
8337;SDS011;4206;48.634;9.516;2022-07-26T09:12:35;9.45;;;1.42;;
8337;SDS011;4206;48.634;9.516;2022-07-26T09:15:02;2.80;;;0.88;;
8337;SDS011;4206;48.634;9.516;2022-07-26T09:17:37;2.00;;;0.90;;
8337;SDS011;4206;48.634;9.516;2022-07-26T09:22:36;3.65;;;1.30;;
8337;SDS011;4206;48.634;9.516;2022-07-26T09:25:18;4.55;;;1.40;;
8337;SDS011;4206;48.634;9.516;2022-07-26T09:27:44;3.17;;;1.30;;
8337;SDS011;4206;48.634;9.516;2022-07-26T09:30:10;8.18;;;1.20;;
8337;SDS011;4206;48.634;9.516;2022-07-26T09:32:36;4.13;;;1.30;;
8337;SDS011;4206;48.634;9.516;2022-07-26T09:37:45;2.75;;;1.05;;
8337;SDS011;4206;48.634;9.516;2022-07-26T09:40:13;2.80;;;0.73;;
8337;SDS011;4206;48.634;9.516;2022-07-26T09:45:22;3.67;;;0.95;;
8337;SDS011;4206;48.634;9.516;2022-07-26T09:47:49;8.63;;;1.23;;
8337;SDS011;4206;48.634;9.516;2022-07-26T09:50:17;1.50;;;0.97;;
8337;SDS011;4206;48.634;9.516;2022-07-26T09:55:26;1.85;;;0.73;;
8337;SDS011;4206;48.634;9.516;2022-07-26T09:57:53;1.90;;;1.00;;
8337;SDS011;4206;48.634;9.516;2022-07-26T10:00:19;6.40;;;0.90;;
8337;SDS011;4206;48.634;9.516;2022-07-26T10:02:45;1.50;;;0.80;;
8337;SDS011;4206;48.634;9.516;2022-07-26T10:05:10;1.95;;;0.80;;
8337;SDS011;4206;48.634;9.516;2022-07-26T10:07:36;1.40;;;1.00;;
8337;SDS011;4206;48.634;9.516;2022-07-26T10:10:06;2.45;;;0.93;;
8337;SDS011;4206;48.634;9.516;2022-07-26T10:12:36;3.47;;;0.60;;
8337;SDS011;4206;48.634;9.516;2022-07-26T10:15:02;1.70;;;0.90;;
8337;SDS011;4206;48.634;9.516;2022-07-26T10:22:29;2.47;;;1.00;;
8337;SDS011;4206;48.634;9.516;2022-07-26T10:24:57;2.78;;;0.90;;
8337;SDS011;4206;48.634;9.516;2022-07-26T10:27:46;1.90;;;0.88;;
8337;SDS011;4206;48.634;9.516;2022-07-26T10:32:56;7.32;;;1.25;;
8337;SDS011;4206;48.634;9.516;2022-07-26T10:38:00;1.35;;;0.98;;
8337;SDS011;4206;48.634;9.516;2022-07-26T10:40:28;6.18;;;1.02;;
8337;SDS011;4206;48.634;9.516;2022-07-26T10:45:37;1.17;;;0.80;;
8337;SDS011;4206;48.634;9.516;2022-07-26T10:50:47;2.03;;;0.93;;
8337;SDS011;4206;48.634;9.516;2022-07-26T10:53:17;1.73;;;0.80;;
8337;SDS011;4206;48.634;9.516;2022-07-26T10:55:46;2.20;;;0.95;;
8337;SDS011;4206;48.634;9.516;2022-07-26T10:58:15;2.58;;;0.63;;
8337;SDS011;4206;48.634;9.516;2022-07-26T11:00:52;2.33;;;1.13;;
8337;SDS011;4206;48.634;9.516;2022-07-26T11:03:19;3.17;;;0.75;;
8337;SDS011;4206;48.634;9.516;2022-07-26T11:05:45;4.13;;;0.82;;
8337;SDS011;4206;48.634;9.516;2022-07-26T11:08:11;3.95;;;0.90;;
8337;SDS011;4206;48.634;9.516;2022-07-26T11:10:38;9.07;;;1.65;;
8337;SDS011;4206;48.634;9.516;2022-07-26T11:13:07;5.35;;;1.00;;
8337;SDS011;4206;48.634;9.516;2022-07-26T11:15:36;2.55;;;1.00;;
8337;SDS011;4206;48.634;9.516;2022-07-26T11:18:07;1.42;;;0.65;;
8337;SDS011;4206;48.634;9.516;2022-07-26T11:20:35;1.63;;;0.85;;
8337;SDS011;4206;48.634;9.516;2022-07-26T11:23:00;1.38;;;0.50;;
8337;SDS011;4206;48.634;9.516;2022-07-26T11:25:26;2.78;;;1.20;;
8337;SDS011;4206;48.634;9.516;2022-07-26T11:30:34;2.78;;;0.75;;
8337;SDS011;4206;48.634;9.516;2022-07-26T11:32:59;1.80;;;0.77;;
8337;SDS011;4206;48.634;9.516;2022-07-26T11:35:26;1.70;;;0.80;;
8337;SDS011;4206;48.634;9.516;2022-07-26T11:37:53;7.55;;;0.90;;
8337;SDS011;4206;48.634;9.516;2022-07-26T11:43:09;1.48;;;0.77;;
8337;SDS011;4206;48.634;9.516;2022-07-26T11:45:35;2.33;;;0.88;;
8337;SDS011;4206;48.634;9.516;2022-07-26T11:48:01;2.85;;;1.00;;
8337;SDS011;4206;48.634;9.516;2022-07-26T11:50:28;1.27;;;0.70;;
8337;SDS011;4206;48.634;9.516;2022-07-26T11:52:53;3.58;;;1.25;;
8337;SDS011;4206;48.634;9.516;2022-07-26T11:58:04;2.90;;;1.00;;
8337;SDS011;4206;48.634;9.516;2022-07-26T12:00:30;2.65;;;0.70;;
8337;SDS011;4206;48.634;9.516;2022-07-26T12:02:56;1.40;;;0.85;;
8337;SDS011;4206;48.634;9.516;2022-07-26T12:05:34;1.27;;;0.80;;
8337;SDS011;4206;48.634;9.516;2022-07-26T12:08:01;2.17;;;1.00;;
8337;SDS011;4206;48.634;9.516;2022-07-26T12:10:28;5.55;;;0.77;;
8337;SDS011;4206;48.634;9.516;2022-07-26T12:15:44;5.85;;;1.00;;
8337;SDS011;4206;48.634;9.516;2022-07-26T12:18:20;1.80;;;0.95;;
8337;SDS011;4206;48.634;9.516;2022-07-26T12:20:55;0.90;;;0.55;;
8337;SDS011;4206;48.634;9.516;2022-07-26T12:23:22;1.88;;;0.90;;
8337;SDS011;4206;48.634;9.516;2022-07-26T12:25:48;1.52;;;0.70;;
8337;SDS011;4206;48.634;9.516;2022-07-26T12:28:13;4.13;;;0.70;;
8337;SDS011;4206;48.634;9.516;2022-07-26T12:30:39;0.88;;;0.70;;
8337;SDS011;4206;48.634;9.516;2022-07-26T12:33:05;1.23;;;0.55;;
8337;SDS011;4206;48.634;9.516;2022-07-26T12:35:31;1.05;;;0.60;;
8337;SDS011;4206;48.634;9.516;2022-07-26T12:37:59;2.55;;;0.70;;
8337;SDS011;4206;48.634;9.516;2022-07-26T12:40:27;3.92;;;0.95;;
8337;SDS011;4206;48.634;9.516;2022-07-26T12:45:24;2.25;;;0.60;;
8337;SDS011;4206;48.634;9.516;2022-07-26T12:47:52;2.35;;;0.82;;
8337;SDS011;4206;48.634;9.516;2022-07-26T12:50:20;1.73;;;0.80;;
8337;SDS011;4206;48.634;9.516;2022-07-26T12:52:47;1.25;;;0.80;;
8337;SDS011;4206;48.634;9.516;2022-07-26T12:55:15;1.88;;;0.80;;
8337;SDS011;4206;48.634;9.516;2022-07-26T12:57:44;0.95;;;0.65;;
8337;SDS011;4206;48.634;9.516;2022-07-26T13:00:11;1.50;;;0.88;;
8337;SDS011;4206;48.634;9.516;2022-07-26T13:02:37;1.15;;;0.63;;
8337;SDS011;4206;48.634;9.516;2022-07-26T13:05:05;1.83;;;0.70;;
8337;SDS011;4206;48.634;9.516;2022-07-26T13:07:32;2.78;;;0.75;;
8337;SDS011;4206;48.634;9.516;2022-07-26T13:09:58;1.80;;;0.60;;
8337;SDS011;4206;48.634;9.516;2022-07-26T13:12:24;3.78;;;0.93;;
8337;SDS011;4206;48.634;9.516;2022-07-26T13:14:50;1.75;;;0.70;;
8337;SDS011;4206;48.634;9.516;2022-07-26T13:17:15;1.73;;;0.80;;
8337;SDS011;4206;48.634;9.516;2022-07-26T13:19:41;1.02;;;0.88;;
8337;SDS011;4206;48.634;9.516;2022-07-26T13:22:07;4.88;;;0.70;;
8337;SDS011;4206;48.634;9.516;2022-07-26T13:24:34;0.73;;;0.68;;
8337;SDS011;4206;48.634;9.516;2022-07-26T13:27:01;2.72;;;0.90;;
8337;SDS011;4206;48.634;9.516;2022-07-26T13:29:27;2.65;;;0.75;;
8337;SDS011;4206;48.634;9.516;2022-07-26T13:31:53;1.08;;;0.57;;
8337;SDS011;4206;48.634;9.516;2022-07-26T13:34:21;2.67;;;0.60;;
8337;SDS011;4206;48.634;9.516;2022-07-26T13:36:48;2.08;;;0.85;;
8337;SDS011;4206;48.634;9.516;2022-07-26T13:39:15;0.68;;;0.47;;
8337;SDS011;4206;48.634;9.516;2022-07-26T13:41:40;1.40;;;0.65;;
8337;SDS011;4206;48.634;9.516;2022-07-26T13:44:06;0.52;;;0.45;;
8337;SDS011;4206;48.634;9.516;2022-07-26T13:46:32;1.13;;;0.68;;
8337;SDS011;4206;48.634;9.516;2022-07-26T13:48:58;1.55;;;0.80;;
8337;SDS011;4206;48.634;9.516;2022-07-26T13:51:26;0.60;;;0.60;;
8337;SDS011;4206;48.634;9.516;2022-07-26T13:54:11;1.23;;;0.70;;
8337;SDS011;4206;48.634;9.516;2022-07-26T13:56:38;2.25;;;0.60;;
8337;SDS011;4206;48.634;9.516;2022-07-26T13:59:03;1.08;;;0.65;;
8337;SDS011;4206;48.634;9.516;2022-07-26T14:01:30;1.50;;;0.63;;
8337;SDS011;4206;48.634;9.516;2022-07-26T14:03:56;2.05;;;0.70;;
8337;SDS011;4206;48.634;9.516;2022-07-26T14:06:23;5.18;;;0.88;;
8337;SDS011;4206;48.634;9.516;2022-07-26T14:08:50;0.70;;;0.50;;
8337;SDS011;4206;48.634;9.516;2022-07-26T14:11:16;2.97;;;0.70;;
8337;SDS011;4206;48.634;9.516;2022-07-26T14:13:42;0.60;;;0.50;;
8337;SDS011;4206;48.634;9.516;2022-07-26T14:16:08;2.25;;;0.70;;
8337;SDS011;4206;48.634;9.516;2022-07-26T14:18:33;1.10;;;0.65;;
8337;SDS011;4206;48.634;9.516;2022-07-26T14:21:00;1.25;;;0.50;;
8337;SDS011;4206;48.634;9.516;2022-07-26T14:23:26;0.95;;;0.90;;
8337;SDS011;4206;48.634;9.516;2022-07-26T14:25:52;2.95;;;0.80;;
8337;SDS011;4206;48.634;9.516;2022-07-26T14:28:18;0.60;;;0.50;;
8337;SDS011;4206;48.634;9.516;2022-07-26T14:30:44;3.13;;;0.68;;
8337;SDS011;4206;48.634;9.516;2022-07-26T14:33:09;0.70;;;0.70;;
8337;SDS011;4206;48.634;9.516;2022-07-26T14:35:35;6.22;;;0.70;;
8337;SDS011;4206;48.634;9.516;2022-07-26T14:38:01;1.15;;;0.70;;
8337;SDS011;4206;48.634;9.516;2022-07-26T14:40:27;1.55;;;0.60;;
8337;SDS011;4206;48.634;9.516;2022-07-26T14:42:52;2.80;;;0.95;;
8337;SDS011;4206;48.634;9.516;2022-07-26T14:45:18;1.08;;;0.60;;
8337;SDS011;4206;48.634;9.516;2022-07-26T14:47:43;1.35;;;0.73;;
8337;SDS011;4206;48.634;9.516;2022-07-26T14:50:10;1.83;;;0.60;;
8337;SDS011;4206;48.634;9.516;2022-07-26T14:52:38;3.70;;;0.80;;
8337;SDS011;4206;48.634;9.516;2022-07-26T14:55:05;3.53;;;0.80;;
8337;SDS011;4206;48.634;9.516;2022-07-26T14:57:31;0.68;;;0.45;;
8337;SDS011;4206;48.634;9.516;2022-07-26T14:59:57;5.05;;;0.43;;
8337;SDS011;4206;48.634;9.516;2022-07-26T15:02:23;1.92;;;0.77;;
8337;SDS011;4206;48.634;9.516;2022-07-26T15:04:49;1.20;;;0.77;;
8337;SDS011;4206;48.634;9.516;2022-07-26T15:07:14;2.92;;;1.30;;
8337;SDS011;4206;48.634;9.516;2022-07-26T15:09:40;1.10;;;0.80;;
8337;SDS011;4206;48.634;9.516;2022-07-26T15:12:06;1.00;;;0.70;;
8337;SDS011;4206;48.634;9.516;2022-07-26T15:14:32;1.83;;;0.50;;
8337;SDS011;4206;48.634;9.516;2022-07-26T15:16:58;1.10;;;0.80;;
8337;SDS011;4206;48.634;9.516;2022-07-26T15:19:23;0.80;;;0.50;;
8337;SDS011;4206;48.634;9.516;2022-07-26T15:21:49;1.83;;;0.70;;
8337;SDS011;4206;48.634;9.516;2022-07-26T15:24:17;1.27;;;0.97;;
8337;SDS011;4206;48.634;9.516;2022-07-26T15:26:43;1.47;;;0.70;;
8337;SDS011;4206;48.634;9.516;2022-07-26T15:29:09;1.67;;;0.90;;
8337;SDS011;4206;48.634;9.516;2022-07-26T15:31:34;0.70;;;0.60;;
8337;SDS011;4206;48.634;9.516;2022-07-26T15:34:00;1.80;;;0.70;;
8337;SDS011;4206;48.634;9.516;2022-07-26T15:36:26;3.00;;;0.90;;
8337;SDS011;4206;48.634;9.516;2022-07-26T15:38:51;1.57;;;0.50;;
8337;SDS011;4206;48.634;9.516;2022-07-26T15:41:17;1.77;;;0.90;;
8337;SDS011;4206;48.634;9.516;2022-07-26T15:43:43;1.63;;;0.97;;
8337;SDS011;4206;48.634;9.516;2022-07-26T15:46:12;2.50;;;0.97;;
8337;SDS011;4206;48.634;9.516;2022-07-26T15:48:37;3.43;;;0.73;;
8337;SDS011;4206;48.634;9.516;2022-07-26T15:51:03;0.73;;;0.60;;
8337;SDS011;4206;48.634;9.516;2022-07-26T15:53:31;2.00;;;0.63;;